sensor_id;sensor_type;location;lat;lon;timestamp;temperature;humidity
17483;DHT22;8858;52.308;20.994;2023-07-20T00:01:17;20.30;99.90
17483;DHT22;8858;52.308;20.994;2023-07-20T00:03:51;20.30;99.90
17483;DHT22;8858;52.308;20.994;2023-07-20T00:06:23;20.30;99.90
17483;DHT22;8858;52.308;20.994;2023-07-20T00:08:52;20.30;99.90
17483;DHT22;8858;52.308;20.994;2023-07-20T00:11:26;20.20;99.90
17483;DHT22;8858;52.308;20.994;2023-07-20T00:13:54;20.20;99.90
17483;DHT22;8858;52.308;20.994;2023-07-20T00:16:26;20.20;99.90
17483;DHT22;8858;52.308;20.994;2023-07-20T00:18:57;20.20;99.90
17483;DHT22;8858;52.308;20.994;2023-07-20T00:21:27;20.20;99.90
17483;DHT22;8858;52.308;20.994;2023-07-20T00:23:56;20.10;99.90
17483;DHT22;8858;52.308;20.994;2023-07-20T00:26:25;20.10;99.90
17483;DHT22;8858;52.308;20.994;2023-07-20T00:28:56;20.10;99.90
17483;DHT22;8858;52.308;20.994;2023-07-20T00:31:24;20.10;99.90
17483;DHT22;8858;52.308;20.994;2023-07-20T00:33:57;20.10;99.90
17483;DHT22;8858;52.308;20.994;2023-07-20T00:36:26;20.10;99.90
17483;DHT22;8858;52.308;20.994;2023-07-20T00:38:54;20.10;99.90
17483;DHT22;8858;52.308;20.994;2023-07-20T00:41:24;20.00;99.90
17483;DHT22;8858;52.308;20.994;2023-07-20T00:43:56;20.10;99.90
17483;DHT22;8858;52.308;20.994;2023-07-20T00:46:26;20.10;99.90
17483;DHT22;8858;52.308;20.994;2023-07-20T00:48:57;20.10;99.90
17483;DHT22;8858;52.308;20.994;2023-07-20T00:51:29;20.00;99.90
17483;DHT22;8858;52.308;20.994;2023-07-20T00:53:58;20.00;99.90
17483;DHT22;8858;52.308;20.994;2023-07-20T00:56:26;20.00;99.90
17483;DHT22;8858;52.308;20.994;2023-07-20T00:58:54;20.00;99.90
17483;DHT22;8858;52.308;20.994;2023-07-20T01:01:23;19.90;99.90
17483;DHT22;8858;52.308;20.994;2023-07-20T01:03:51;19.90;99.90
17483;DHT22;8858;52.308;20.994;2023-07-20T01:06:29;19.80;99.90
17483;DHT22;8858;52.308;20.994;2023-07-20T01:09:13;19.80;99.90
17483;DHT22;8858;52.308;20.994;2023-07-20T01:11:49;19.80;99.90
17483;DHT22;8858;52.308;20.994;2023-07-20T01:14:19;19.70;99.90
17483;DHT22;8858;52.308;20.994;2023-07-20T01:16:48;19.70;99.90
17483;DHT22;8858;52.308;20.994;2023-07-20T01:19:24;19.60;99.90
17483;DHT22;8858;52.308;20.994;2023-07-20T01:21:59;19.60;99.90
17483;DHT22;8858;52.308;20.994;2023-07-20T01:24:56;19.60;99.90
17483;DHT22;8858;52.308;20.994;2023-07-20T01:30:47;19.50;99.90
17483;DHT22;8858;52.308;20.994;2023-07-20T01:33:20;19.50;99.90
17483;DHT22;8858;52.308;20.994;2023-07-20T01:35:54;19.50;99.90
17483;DHT22;8858;52.308;20.994;2023-07-20T01:38:26;19.50;99.90
17483;DHT22;8858;52.308;20.994;2023-07-20T01:40:55;19.40;99.90
17483;DHT22;8858;52.308;20.994;2023-07-20T01:43:24;19.50;99.90
17483;DHT22;8858;52.308;20.994;2023-07-20T01:45:55;19.40;99.90
17483;DHT22;8858;52.308;20.994;2023-07-20T01:48:25;19.50;99.90
17483;DHT22;8858;52.308;20.994;2023-07-20T01:50:54;19.50;99.90
17483;DHT22;8858;52.308;20.994;2023-07-20T01:53:24;19.50;99.90
17483;DHT22;8858;52.308;20.994;2023-07-20T01:55:53;19.50;99.90
17483;DHT22;8858;52.308;20.994;2023-07-20T01:58:24;19.50;99.90
17483;DHT22;8858;52.308;20.994;2023-07-20T02:00:52;19.50;99.90
17483;DHT22;8858;52.308;20.994;2023-07-20T02:03:24;19.50;99.90
17483;DHT22;8858;52.308;20.994;2023-07-20T02:05:53;19.60;99.90
17483;DHT22;8858;52.308;20.994;2023-07-20T02:08:25;19.50;99.90
17483;DHT22;8858;52.308;20.994;2023-07-20T02:10:56;19.60;99.90
17483;DHT22;8858;52.308;20.994;2023-07-20T02:13:25;19.50;99.90
17483;DHT22;8858;52.308;20.994;2023-07-20T02:15:54;19.50;99.90
17483;DHT22;8858;52.308;20.994;2023-07-20T02:18:22;19.40;99.90
17483;DHT22;8858;52.308;20.994;2023-07-20T02:20:54;19.40;99.90
17483;DHT22;8858;52.308;20.994;2023-07-20T02:23:23;19.30;99.90
17483;DHT22;8858;52.308;20.994;2023-07-20T02:25:52;19.30;99.90
17483;DHT22;8858;52.308;20.994;2023-07-20T02:28:20;19.20;99.90
17483;DHT22;8858;52.308;20.994;2023-07-20T02:30:49;19.20;99.90
17483;DHT22;8858;52.308;20.994;2023-07-20T02:33:17;19.20;99.90
17483;DHT22;8858;52.308;20.994;2023-07-20T02:35:47;19.20;99.90
17483;DHT22;8858;52.308;20.994;2023-07-20T02:38:17;19.10;99.90
17483;DHT22;8858;52.308;20.994;2023-07-20T02:40:45;19.20;99.90
17483;DHT22;8858;52.308;20.994;2023-07-20T02:43:14;19.20;99.90
17483;DHT22;8858;52.308;20.994;2023-07-20T02:45:43;19.20;99.90
17483;DHT22;8858;52.308;20.994;2023-07-20T02:48:14;19.20;99.90
17483;DHT22;8858;52.308;20.994;2023-07-20T02:50:44;19.20;99.90
17483;DHT22;8858;52.308;20.994;2023-07-20T02:53:13;19.20;99.90
17483;DHT22;8858;52.308;20.994;2023-07-20T02:55:44;19.30;99.90
17483;DHT22;8858;52.308;20.994;2023-07-20T02:58:13;19.30;99.90
17483;DHT22;8858;52.308;20.994;2023-07-20T03:00:42;19.30;99.90
17483;DHT22;8858;52.308;20.994;2023-07-20T03:03:11;19.30;99.90
17483;DHT22;8858;52.308;20.994;2023-07-20T03:05:41;19.30;99.90
17483;DHT22;8858;52.308;20.994;2023-07-20T03:08:10;19.40;99.90
17483;DHT22;8858;52.308;20.994;2023-07-20T03:10:39;19.30;99.90
17483;DHT22;8858;52.308;20.994;2023-07-20T03:13:09;19.30;99.90
17483;DHT22;8858;52.308;20.994;2023-07-20T03:15:39;19.30;99.90
17483;DHT22;8858;52.308;20.994;2023-07-20T03:18:11;19.30;99.90
17483;DHT22;8858;52.308;20.994;2023-07-20T03:20:39;19.30;99.90
17483;DHT22;8858;52.308;20.994;2023-07-20T03:23:07;19.30;99.90
17483;DHT22;8858;52.308;20.994;2023-07-20T03:25:38;19.30;99.90
17483;DHT22;8858;52.308;20.994;2023-07-20T03:28:09;19.30;99.90
17483;DHT22;8858;52.308;20.994;2023-07-20T03:30:38;19.30;99.90
17483;DHT22;8858;52.308;20.994;2023-07-20T03:33:07;19.30;99.90
17483;DHT22;8858;52.308;20.994;2023-07-20T03:35:35;19.30;99.90
17483;DHT22;8858;52.308;20.994;2023-07-20T03:38:09;19.20;99.90
17483;DHT22;8858;52.308;20.994;2023-07-20T03:40:37;19.20;99.90
17483;DHT22;8858;52.308;20.994;2023-07-20T03:43:06;19.20;99.90
17483;DHT22;8858;52.308;20.994;2023-07-20T03:45:37;19.20;99.90
17483;DHT22;8858;52.308;20.994;2023-07-20T03:48:09;19.20;99.90
17483;DHT22;8858;52.308;20.994;2023-07-20T03:50:38;19.00;99.90
17483;DHT22;8858;52.308;20.994;2023-07-20T03:53:07;18.90;99.90
17483;DHT22;8858;52.308;20.994;2023-07-20T03:55:35;18.70;99.90
17483;DHT22;8858;52.308;20.994;2023-07-20T03:58:03;18.50;99.90
17483;DHT22;8858;52.308;20.994;2023-07-20T04:00:33;18.40;99.90
17483;DHT22;8858;52.308;20.994;2023-07-20T04:03:05;18.30;99.90
17483;DHT22;8858;52.308;20.994;2023-07-20T04:05:34;18.30;99.90
17483;DHT22;8858;52.308;20.994;2023-07-20T04:08:04;18.30;99.90
17483;DHT22;8858;52.308;20.994;2023-07-20T04:10:33;18.30;99.90
17483;DHT22;8858;52.308;20.994;2023-07-20T04:13:01;18.40;99.90
17483;DHT22;8858;52.308;20.994;2023-07-20T04:15:31;18.40;99.90
17483;DHT22;8858;52.308;20.994;2023-07-20T04:17:59;18.40;99.90
17483;DHT22;8858;52.308;20.994;2023-07-20T04:20:31;18.50;99.90
17483;DHT22;8858;52.308;20.994;2023-07-20T04:22:59;18.50;99.90
17483;DHT22;8858;52.308;20.994;2023-07-20T04:25:28;18.50;99.90
17483;DHT22;8858;52.308;20.994;2023-07-20T04:28:08;18.50;99.90
17483;DHT22;8858;52.308;20.994;2023-07-20T04:30:42;18.50;99.90
17483;DHT22;8858;52.308;20.994;2023-07-20T04:33:11;18.50;99.90
17483;DHT22;8858;52.308;20.994;2023-07-20T04:35:52;18.40;99.90
17483;DHT22;8858;52.308;20.994;2023-07-20T04:38:28;18.30;99.90
17483;DHT22;8858;52.308;20.994;2023-07-20T04:41:14;18.20;99.90
17483;DHT22;8858;52.308;20.994;2023-07-20T04:43:45;18.10;99.90
17483;DHT22;8858;52.308;20.994;2023-07-20T04:46:19;18.00;99.90
17483;DHT22;8858;52.308;20.994;2023-07-20T04:48:49;17.80;99.90
17483;DHT22;8858;52.308;20.994;2023-07-20T04:51:20;17.70;99.90
17483;DHT22;8858;52.308;20.994;2023-07-20T04:53:53;17.50;99.90
17483;DHT22;8858;52.308;20.994;2023-07-20T04:56:23;17.40;99.90
17483;DHT22;8858;52.308;20.994;2023-07-20T04:58:53;17.20;99.90
17483;DHT22;8858;52.308;20.994;2023-07-20T05:01:23;17.10;99.90
17483;DHT22;8858;52.308;20.994;2023-07-20T05:03:54;17.10;99.90
17483;DHT22;8858;52.308;20.994;2023-07-20T05:06:24;17.10;99.90
17483;DHT22;8858;52.308;20.994;2023-07-20T05:08:53;17.10;99.90
17483;DHT22;8858;52.308;20.994;2023-07-20T05:11:22;17.10;99.90
17483;DHT22;8858;52.308;20.994;2023-07-20T05:13:50;17.10;99.90
17483;DHT22;8858;52.308;20.994;2023-07-20T05:16:19;17.10;99.90
17483;DHT22;8858;52.308;20.994;2023-07-20T05:18:48;17.10;99.90
17483;DHT22;8858;52.308;20.994;2023-07-20T05:21:17;17.10;99.90
17483;DHT22;8858;52.308;20.994;2023-07-20T05:23:48;17.10;99.90
17483;DHT22;8858;52.308;20.994;2023-07-20T05:26:17;17.20;99.90
17483;DHT22;8858;52.308;20.994;2023-07-20T05:28:45;17.20;99.90
17483;DHT22;8858;52.308;20.994;2023-07-20T05:31:14;17.20;99.90
17483;DHT22;8858;52.308;20.994;2023-07-20T05:33:42;17.20;99.90
17483;DHT22;8858;52.308;20.994;2023-07-20T05:36:12;17.20;99.90
17483;DHT22;8858;52.308;20.994;2023-07-20T05:38:40;17.30;99.90
17483;DHT22;8858;52.308;20.994;2023-07-20T05:41:34;17.30;99.90
17483;DHT22;8858;52.308;20.994;2023-07-20T05:44:02;17.40;99.90
17483;DHT22;8858;52.308;20.994;2023-07-20T05:46:31;17.50;99.90
17483;DHT22;8858;52.308;20.994;2023-07-20T05:49:18;17.60;99.90
17483;DHT22;8858;52.308;20.994;2023-07-20T05:51:47;17.70;99.90
17483;DHT22;8858;52.308;20.994;2023-07-20T05:54:15;17.80;99.90
17483;DHT22;8858;52.308;20.994;2023-07-20T05:56:45;17.80;99.90
17483;DHT22;8858;52.308;20.994;2023-07-20T05:59:14;17.90;99.90
17483;DHT22;8858;52.308;20.994;2023-07-20T06:01:43;18.00;99.90
17483;DHT22;8858;52.308;20.994;2023-07-20T06:04:11;18.00;99.90
17483;DHT22;8858;52.308;20.994;2023-07-20T06:06:40;18.10;99.90
17483;DHT22;8858;52.308;20.994;2023-07-20T06:09:12;18.20;99.90
17483;DHT22;8858;52.308;20.994;2023-07-20T06:11:42;18.30;99.90
17483;DHT22;8858;52.308;20.994;2023-07-20T06:14:12;18.40;99.90
17483;DHT22;8858;52.308;20.994;2023-07-20T06:16:40;18.40;99.90
17483;DHT22;8858;52.308;20.994;2023-07-20T06:19:09;18.50;99.90
17483;DHT22;8858;52.308;20.994;2023-07-20T06:21:40;18.50;99.90
17483;DHT22;8858;52.308;20.994;2023-07-20T06:24:09;18.60;99.90
17483;DHT22;8858;52.308;20.994;2023-07-20T06:26:39;18.60;99.90
17483;DHT22;8858;52.308;20.994;2023-07-20T06:29:08;18.60;99.90
17483;DHT22;8858;52.308;20.994;2023-07-20T06:31:38;18.70;99.90
17483;DHT22;8858;52.308;20.994;2023-07-20T06:34:08;18.70;99.90
17483;DHT22;8858;52.308;20.994;2023-07-20T06:36:36;18.70;99.90
17483;DHT22;8858;52.308;20.994;2023-07-20T06:39:05;18.60;99.90
17483;DHT22;8858;52.308;20.994;2023-07-20T06:41:37;18.60;99.90
17483;DHT22;8858;52.308;20.994;2023-07-20T06:44:09;18.60;99.90
17483;DHT22;8858;52.308;20.994;2023-07-20T06:46:39;18.70;99.90
17483;DHT22;8858;52.308;20.994;2023-07-20T06:49:08;18.70;99.90
17483;DHT22;8858;52.308;20.994;2023-07-20T06:51:42;18.70;99.90
17483;DHT22;8858;52.308;20.994;2023-07-20T06:54:11;18.80;99.90
17483;DHT22;8858;52.308;20.994;2023-07-20T06:56:41;18.80;99.90
17483;DHT22;8858;52.308;20.994;2023-07-20T06:59:12;18.80;99.90
17483;DHT22;8858;52.308;20.994;2023-07-20T07:01:42;18.80;99.90
17483;DHT22;8858;52.308;20.994;2023-07-20T07:04:12;18.90;99.90
17483;DHT22;8858;52.308;20.994;2023-07-20T07:06:40;18.90;99.90
17483;DHT22;8858;52.308;20.994;2023-07-20T07:09:12;18.90;99.90
17483;DHT22;8858;52.308;20.994;2023-07-20T07:11:40;18.90;99.90
17483;DHT22;8858;52.308;20.994;2023-07-20T07:14:08;18.90;99.90
17483;DHT22;8858;52.308;20.994;2023-07-20T07:16:41;18.90;99.90
17483;DHT22;8858;52.308;20.994;2023-07-20T07:19:12;18.80;99.90
17483;DHT22;8858;52.308;20.994;2023-07-20T07:21:41;18.80;99.90
17483;DHT22;8858;52.308;20.994;2023-07-20T07:24:10;18.80;99.90
17483;DHT22;8858;52.308;20.994;2023-07-20T07:26:38;18.80;99.90
17483;DHT22;8858;52.308;20.994;2023-07-20T07:29:07;18.80;99.90
17483;DHT22;8858;52.308;20.994;2023-07-20T07:31:36;18.60;99.90
17483;DHT22;8858;52.308;20.994;2023-07-20T07:34:08;18.70;99.90
17483;DHT22;8858;52.308;20.994;2023-07-20T07:36:37;18.60;99.90
17483;DHT22;8858;52.308;20.994;2023-07-20T07:39:06;18.70;99.90
17483;DHT22;8858;52.308;20.994;2023-07-20T07:41:38;18.70;99.90
17483;DHT22;8858;52.308;20.994;2023-07-20T07:44:07;18.60;99.90
17483;DHT22;8858;52.308;20.994;2023-07-20T07:46:35;18.50;99.90
17483;DHT22;8858;52.308;20.994;2023-07-20T07:49:05;18.50;99.90
17483;DHT22;8858;52.308;20.994;2023-07-20T07:51:34;18.40;99.90
17483;DHT22;8858;52.308;20.994;2023-07-20T07:54:04;18.40;99.90
17483;DHT22;8858;52.308;20.994;2023-07-20T07:56:36;18.30;99.90
17483;DHT22;8858;52.308;20.994;2023-07-20T07:59:05;18.40;99.90
17483;DHT22;8858;52.308;20.994;2023-07-20T08:01:33;18.40;99.90
17483;DHT22;8858;52.308;20.994;2023-07-20T08:04:01;18.40;99.90
17483;DHT22;8858;52.308;20.994;2023-07-20T08:06:33;18.30;99.90
17483;DHT22;8858;52.308;20.994;2023-07-20T08:09:02;18.30;99.90
17483;DHT22;8858;52.308;20.994;2023-07-20T08:11:30;18.30;99.90
17483;DHT22;8858;52.308;20.994;2023-07-20T08:14:00;18.30;99.90
17483;DHT22;8858;52.308;20.994;2023-07-20T08:16:29;18.30;99.90
17483;DHT22;8858;52.308;20.994;2023-07-20T08:18:59;18.30;99.90
17483;DHT22;8858;52.308;20.994;2023-07-20T08:21:29;18.30;99.90
17483;DHT22;8858;52.308;20.994;2023-07-20T08:23:58;18.30;99.90
17483;DHT22;8858;52.308;20.994;2023-07-20T08:26:27;18.40;99.90
17483;DHT22;8858;52.308;20.994;2023-07-20T08:28:55;18.40;99.90
17483;DHT22;8858;52.308;20.994;2023-07-20T08:31:23;18.40;99.90
17483;DHT22;8858;52.308;20.994;2023-07-20T08:33:52;18.40;99.90
17483;DHT22;8858;52.308;20.994;2023-07-20T08:36:20;18.50;99.90
17483;DHT22;8858;52.308;20.994;2023-07-20T08:38:48;18.50;99.90
17483;DHT22;8858;52.308;20.994;2023-07-20T08:41:18;18.50;99.90
17483;DHT22;8858;52.308;20.994;2023-07-20T08:43:47;18.50;99.90
17483;DHT22;8858;52.308;20.994;2023-07-20T08:46:16;18.50;99.90
17483;DHT22;8858;52.308;20.994;2023-07-20T08:48:45;18.60;99.90
17483;DHT22;8858;52.308;20.994;2023-07-20T08:51:19;18.60;99.90
17483;DHT22;8858;52.308;20.994;2023-07-20T08:53:51;18.60;99.90
17483;DHT22;8858;52.308;20.994;2023-07-20T08:56:23;18.70;99.90
17483;DHT22;8858;52.308;20.994;2023-07-20T08:58:52;18.70;99.90
17483;DHT22;8858;52.308;20.994;2023-07-20T09:01:21;18.70;99.90
17483;DHT22;8858;52.308;20.994;2023-07-20T09:03:50;18.80;99.90
17483;DHT22;8858;52.308;20.994;2023-07-20T09:06:18;18.80;99.90
17483;DHT22;8858;52.308;20.994;2023-07-20T09:08:47;18.80;99.90
17483;DHT22;8858;52.308;20.994;2023-07-20T09:11:15;18.80;99.90
17483;DHT22;8858;52.308;20.994;2023-07-20T09:13:45;18.90;99.90
17483;DHT22;8858;52.308;20.994;2023-07-20T09:16:17;18.90;99.90
17483;DHT22;8858;52.308;20.994;2023-07-20T09:18:46;19.10;99.90
17483;DHT22;8858;52.308;20.994;2023-07-20T09:21:17;19.10;99.90
17483;DHT22;8858;52.308;20.994;2023-07-20T09:23:46;19.10;99.90
17483;DHT22;8858;52.308;20.994;2023-07-20T09:26:19;19.20;99.90
17483;DHT22;8858;52.308;20.994;2023-07-20T09:28:51;19.10;99.90
17483;DHT22;8858;52.308;20.994;2023-07-20T09:31:21;19.00;99.90
17483;DHT22;8858;52.308;20.994;2023-07-20T09:33:52;18.90;99.90
17483;DHT22;8858;52.308;20.994;2023-07-20T09:36:24;18.90;99.90
17483;DHT22;8858;52.308;20.994;2023-07-20T09:38:59;18.90;99.90
17483;DHT22;8858;52.308;20.994;2023-07-20T09:41:30;18.90;99.90
17483;DHT22;8858;52.308;20.994;2023-07-20T09:44:14;18.90;99.90
17483;DHT22;8858;52.308;20.994;2023-07-20T09:46:45;19.00;99.90
17483;DHT22;8858;52.308;20.994;2023-07-20T09:49:18;19.10;99.90
17483;DHT22;8858;52.308;20.994;2023-07-20T09:51:50;19.00;99.90
17483;DHT22;8858;52.308;20.994;2023-07-20T09:54:21;18.80;99.90
17483;DHT22;8858;52.308;20.994;2023-07-20T09:56:51;18.70;99.90
17483;DHT22;8858;52.308;20.994;2023-07-20T09:59:21;18.60;99.90
17483;DHT22;8858;52.308;20.994;2023-07-20T10:01:52;18.60;99.90
17483;DHT22;8858;52.308;20.994;2023-07-20T10:04:26;18.60;99.90
17483;DHT22;8858;52.308;20.994;2023-07-20T10:06:59;18.70;99.90
17483;DHT22;8858;52.308;20.994;2023-07-20T10:09:29;18.70;99.90
17483;DHT22;8858;52.308;20.994;2023-07-20T10:12:01;18.70;99.90
17483;DHT22;8858;52.308;20.994;2023-07-20T10:14:49;18.60;99.90
17483;DHT22;8858;52.308;20.994;2023-07-20T10:17:20;18.60;99.90
17483;DHT22;8858;52.308;20.994;2023-07-20T10:19:50;18.60;99.90
17483;DHT22;8858;52.308;20.994;2023-07-20T10:22:25;18.40;99.90
17483;DHT22;8858;52.308;20.994;2023-07-20T10:24:54;18.40;99.90
17483;DHT22;8858;52.308;20.994;2023-07-20T10:27:26;18.40;99.90
17483;DHT22;8858;52.308;20.994;2023-07-20T10:29:59;18.30;99.90
17483;DHT22;8858;52.308;20.994;2023-07-20T10:32:33;18.40;99.90
17483;DHT22;8858;52.308;20.994;2023-07-20T10:35:12;18.40;99.90
17483;DHT22;8858;52.308;20.994;2023-07-20T10:37:52;18.50;99.90
17483;DHT22;8858;52.308;20.994;2023-07-20T10:40:33;18.70;99.90
17483;DHT22;8858;52.308;20.994;2023-07-20T10:43:04;18.80;99.90
17483;DHT22;8858;52.308;20.994;2023-07-20T10:45:39;19.00;99.90
17483;DHT22;8858;52.308;20.994;2023-07-20T10:48:15;19.00;99.90
17483;DHT22;8858;52.308;20.994;2023-07-20T10:50:44;19.10;99.90
17483;DHT22;8858;52.308;20.994;2023-07-20T10:53:14;19.30;99.90
17483;DHT22;8858;52.308;20.994;2023-07-20T10:55:46;19.40;99.90
17483;DHT22;8858;52.308;20.994;2023-07-20T10:58:18;19.40;99.90
17483;DHT22;8858;52.308;20.994;2023-07-20T11:01:00;19.50;99.90
17483;DHT22;8858;52.308;20.994;2023-07-20T11:03:31;19.70;99.90
17483;DHT22;8858;52.308;20.994;2023-07-20T11:06:29;19.70;99.90
17483;DHT22;8858;52.308;20.994;2023-07-20T11:09:09;19.80;99.90
17483;DHT22;8858;52.308;20.994;2023-07-20T11:11:43;19.90;99.90
17483;DHT22;8858;52.308;20.994;2023-07-20T11:14:21;20.00;99.90
17483;DHT22;8858;52.308;20.994;2023-07-20T11:16:51;20.10;99.90
17483;DHT22;8858;52.308;20.994;2023-07-20T11:19:21;20.30;99.90
17483;DHT22;8858;52.308;20.994;2023-07-20T11:21:55;20.30;99.90
17483;DHT22;8858;52.308;20.994;2023-07-20T11:24:30;20.20;99.90
17483;DHT22;8858;52.308;20.994;2023-07-20T11:27:00;20.20;99.90
17483;DHT22;8858;52.308;20.994;2023-07-20T11:29:31;20.30;99.90
17483;DHT22;8858;52.308;20.994;2023-07-20T11:32:03;20.40;99.90
17483;DHT22;8858;52.308;20.994;2023-07-20T11:34:33;20.50;99.90
17483;DHT22;8858;52.308;20.994;2023-07-20T11:37:06;20.60;99.90
17483;DHT22;8858;52.308;20.994;2023-07-20T11:39:38;20.70;99.90
17483;DHT22;8858;52.308;20.994;2023-07-20T11:42:09;20.70;99.90
17483;DHT22;8858;52.308;20.994;2023-07-20T11:44:40;20.80;99.90
17483;DHT22;8858;52.308;20.994;2023-07-20T11:47:11;20.90;99.90
17483;DHT22;8858;52.308;20.994;2023-07-20T11:49:41;21.10;99.90
17483;DHT22;8858;52.308;20.994;2023-07-20T11:52:11;21.20;99.90
17483;DHT22;8858;52.308;20.994;2023-07-20T11:54:43;21.30;99.90
17483;DHT22;8858;52.308;20.994;2023-07-20T11:57:16;21.40;99.90
17483;DHT22;8858;52.308;20.994;2023-07-20T11:59:54;21.30;99.90
17483;DHT22;8858;52.308;20.994;2023-07-20T12:02:28;21.40;99.90
17483;DHT22;8858;52.308;20.994;2023-07-20T12:04:58;21.50;99.90
17483;DHT22;8858;52.308;20.994;2023-07-20T12:07:27;21.80;99.90
17483;DHT22;8858;52.308;20.994;2023-07-20T12:10:07;22.00;99.90
17483;DHT22;8858;52.308;20.994;2023-07-20T12:12:38;22.00;99.90
17483;DHT22;8858;52.308;20.994;2023-07-20T12:15:15;22.00;99.90
17483;DHT22;8858;52.308;20.994;2023-07-20T12:17:45;22.10;99.90
17483;DHT22;8858;52.308;20.994;2023-07-20T12:20:24;21.90;99.90
17483;DHT22;8858;52.308;20.994;2023-07-20T12:22:55;21.90;99.90
17483;DHT22;8858;52.308;20.994;2023-07-20T12:25:36;21.80;99.90
17483;DHT22;8858;52.308;20.994;2023-07-20T12:28:05;21.70;99.90
17483;DHT22;8858;52.308;20.994;2023-07-20T12:30:37;21.40;99.90
17483;DHT22;8858;52.308;20.994;2023-07-20T12:33:07;21.20;99.90
17483;DHT22;8858;52.308;20.994;2023-07-20T12:35:36;21.00;99.90
17483;DHT22;8858;52.308;20.994;2023-07-20T12:38:04;21.00;99.90
17483;DHT22;8858;52.308;20.994;2023-07-20T12:40:34;21.10;99.90
17483;DHT22;8858;52.308;20.994;2023-07-20T12:43:04;21.10;99.90
17483;DHT22;8858;52.308;20.994;2023-07-20T12:45:33;21.30;99.90
17483;DHT22;8858;52.308;20.994;2023-07-20T12:48:01;21.50;99.90
17483;DHT22;8858;52.308;20.994;2023-07-20T12:50:31;21.60;99.90
17483;DHT22;8858;52.308;20.994;2023-07-20T12:52:59;21.60;99.90
17483;DHT22;8858;52.308;20.994;2023-07-20T12:55:34;21.60;99.90
17483;DHT22;8858;52.308;20.994;2023-07-20T12:58:02;21.50;99.90
17483;DHT22;8858;52.308;20.994;2023-07-20T13:00:31;21.50;99.90
17483;DHT22;8858;52.308;20.994;2023-07-20T13:03:00;21.50;99.90
17483;DHT22;8858;52.308;20.994;2023-07-20T13:05:37;21.50;99.90
17483;DHT22;8858;52.308;20.994;2023-07-20T13:08:08;21.50;99.90
17483;DHT22;8858;52.308;20.994;2023-07-20T13:10:42;21.50;99.90
17483;DHT22;8858;52.308;20.994;2023-07-20T13:13:10;21.60;99.90
17483;DHT22;8858;52.308;20.994;2023-07-20T13:15:43;21.80;99.90
17483;DHT22;8858;52.308;20.994;2023-07-20T13:18:16;22.10;99.90
17483;DHT22;8858;52.308;20.994;2023-07-20T13:20:47;22.50;99.90
17483;DHT22;8858;52.308;20.994;2023-07-20T13:23:15;23.00;99.90
17483;DHT22;8858;52.308;20.994;2023-07-20T13:25:43;23.40;99.90
17483;DHT22;8858;52.308;20.994;2023-07-20T13:28:11;23.60;99.90
17483;DHT22;8858;52.308;20.994;2023-07-20T13:30:40;23.60;99.90
17483;DHT22;8858;52.308;20.994;2023-07-20T13:33:08;23.70;99.90
17483;DHT22;8858;52.308;20.994;2023-07-20T13:35:44;23.80;99.90
17483;DHT22;8858;52.308;20.994;2023-07-20T13:38:17;24.10;99.90
17483;DHT22;8858;52.308;20.994;2023-07-20T13:40:45;24.70;99.90
17483;DHT22;8858;52.308;20.994;2023-07-20T13:43:14;25.50;99.90
17483;DHT22;8858;52.308;20.994;2023-07-20T13:45:43;26.40;99.90
17483;DHT22;8858;52.308;20.994;2023-07-20T13:48:12;27.20;99.90
17483;DHT22;8858;52.308;20.994;2023-07-20T13:50:44;27.60;99.90
17483;DHT22;8858;52.308;20.994;2023-07-20T13:53:30;27.90;99.90
17483;DHT22;8858;52.308;20.994;2023-07-20T13:56:01;27.60;99.90
17483;DHT22;8858;52.308;20.994;2023-07-20T13:58:37;26.90;99.90
17483;DHT22;8858;52.308;20.994;2023-07-20T14:01:06;26.10;99.90
17483;DHT22;8858;52.308;20.994;2023-07-20T14:03:35;25.60;99.90
17483;DHT22;8858;52.308;20.994;2023-07-20T14:06:04;25.10;99.90
17483;DHT22;8858;52.308;20.994;2023-07-20T14:08:37;24.30;99.90
17483;DHT22;8858;52.308;20.994;2023-07-20T14:11:05;23.80;99.90
17483;DHT22;8858;52.308;20.994;2023-07-20T14:13:37;23.50;99.90
17483;DHT22;8858;52.308;20.994;2023-07-20T14:16:14;23.10;99.90
17483;DHT22;8858;52.308;20.994;2023-07-20T14:18:42;23.00;99.90
17483;DHT22;8858;52.308;20.994;2023-07-20T14:21:15;22.80;99.90
17483;DHT22;8858;52.308;20.994;2023-07-20T14:23:47;22.70;99.90
17483;DHT22;8858;52.308;20.994;2023-07-20T14:26:20;22.60;99.90
17483;DHT22;8858;52.308;20.994;2023-07-20T14:28:50;22.50;99.90
17483;DHT22;8858;52.308;20.994;2023-07-20T14:31:18;22.40;99.90
17483;DHT22;8858;52.308;20.994;2023-07-20T14:33:51;22.10;99.90
17483;DHT22;8858;52.308;20.994;2023-07-20T14:36:19;21.90;99.90
17483;DHT22;8858;52.308;20.994;2023-07-20T14:38:58;21.70;99.90
17483;DHT22;8858;52.308;20.994;2023-07-20T14:41:26;21.50;99.90
17483;DHT22;8858;52.308;20.994;2023-07-20T14:43:54;21.50;99.90
17483;DHT22;8858;52.308;20.994;2023-07-20T14:46:24;21.40;99.90
17483;DHT22;8858;52.308;20.994;2023-07-20T14:48:53;21.30;99.90
17483;DHT22;8858;52.308;20.994;2023-07-20T14:51:22;21.20;99.90
17483;DHT22;8858;52.308;20.994;2023-07-20T14:53:51;21.20;99.90
17483;DHT22;8858;52.308;20.994;2023-07-20T14:56:20;21.10;99.90
17483;DHT22;8858;52.308;20.994;2023-07-20T14:58:49;21.00;99.90
17483;DHT22;8858;52.308;20.994;2023-07-20T15:01:17;20.90;99.90
17483;DHT22;8858;52.308;20.994;2023-07-20T15:03:46;20.80;99.90
17483;DHT22;8858;52.308;20.994;2023-07-20T15:06:18;20.90;99.90
17483;DHT22;8858;52.308;20.994;2023-07-20T15:08:49;21.10;99.90
17483;DHT22;8858;52.308;20.994;2023-07-20T15:11:18;21.40;99.90
17483;DHT22;8858;52.308;20.994;2023-07-20T15:13:48;22.30;99.90
17483;DHT22;8858;52.308;20.994;2023-07-20T15:16:16;23.30;99.90
17483;DHT22;8858;52.308;20.994;2023-07-20T15:18:47;24.20;99.90
17483;DHT22;8858;52.308;20.994;2023-07-20T15:21:16;25.30;99.90
17483;DHT22;8858;52.308;20.994;2023-07-20T15:23:44;26.70;99.90
17483;DHT22;8858;52.308;20.994;2023-07-20T15:26:13;28.30;99.90
17483;DHT22;8858;52.308;20.994;2023-07-20T15:28:42;29.80;98.50
17483;DHT22;8858;52.308;20.994;2023-07-20T15:31:12;30.80;95.10
17483;DHT22;8858;52.308;20.994;2023-07-20T15:33:43;31.30;92.60
17483;DHT22;8858;52.308;20.994;2023-07-20T15:36:14;31.50;91.20
17483;DHT22;8858;52.308;20.994;2023-07-20T15:38:44;31.50;90.60
17483;DHT22;8858;52.308;20.994;2023-07-20T15:41:13;31.20;89.60
17483;DHT22;8858;52.308;20.994;2023-07-20T15:43:42;30.90;89.30
17483;DHT22;8858;52.308;20.994;2023-07-20T15:49:17;29.80;90.90
17483;DHT22;8858;52.308;20.994;2023-07-20T15:51:45;29.20;92.10
17483;DHT22;8858;52.308;20.994;2023-07-20T15:54:16;28.50;92.70
17483;DHT22;8858;52.308;20.994;2023-07-20T15:56:45;27.80;93.50
17483;DHT22;8858;52.308;20.994;2023-07-20T15:59:15;27.30;94.30